Time;durP1;ratioP1;P1;durP2;ratioP2;P2;SDS_P1;SDS_P2;PMS_P1;PMS_P2;Temp;Humidity;BMP_temperature;BMP_pressure;BME280_temperature;BME280_humidity;BME280_pressure;Samples;Min_cycle;Max_cycle;Signal;HPM_P1;HPM_P2
2022/01/24 00:00:07;;;;;;;;;59.00;45.75;;;;;7.98;56.64;102671.28;2071698;28;47814;-61
2022/01/24 00:01:08;;;;;;;;;54.00;45.00;;;;;7.97;56.74;102673.03;2072423;28;48323;-63
2022/01/24 00:02:08;;;;;;;;;55.00;44.25;;;;;7.98;57.15;102671.28;2060807;28;47793;-61
2022/01/24 00:03:09;;;;;;;;;55.75;46.75;;;;;7.96;56.67;102668.63;2062043;28;48139;-61
2022/01/24 00:04:09;;;;;;;;;56.00;45.25;;;;;7.98;56.91;102674.81;2067635;28;47322;-61
2022/01/24 00:05:12;;;;;;;;;52.25;44.50;;;;;7.98;56.65;102669.53;2071192;28;48103;-62
2022/01/24 00:06:15;;;;;;;;;55.60;47.00;;;;;7.99;56.92;102673.06;2069147;28;46128;-61
2022/01/24 00:07:19;;;;;;;;;52.40;42.80;;;;;8.00;56.83;102673.97;2066948;28;47496;-61
2022/01/24 00:08:21;;;;;;;;;58.40;45.80;;;;;8.00;56.97;102674.84;2071072;28;48308;-62
2022/01/24 00:09:21;;;;;;;;;50.40;42.40;;;;;7.98;56.86;102671.28;2068715;28;48333;-61
2022/01/24 00:10:25;;;;;;;;;52.25;42.50;;;;;7.99;56.82;102678.38;2071363;28;47921;-62
2022/01/24 00:11:36;;;;;;;;;52.40;44.40;;;;;7.98;56.70;102669.53;2072411;28;47173;-61
2022/01/24 00:12:55;;;;;;;;;54.40;44.80;;;;;7.98;56.96;102668.66;2069546;28;47615;-62
2022/01/24 00:15:23;;;;;;;;;54.40;43.00;;;;;7.97;56.77;102661.56;2068361;28;47136;-61
2022/01/24 00:16:59;;;;;;;;;44.20;39.40;;;;;7.96;56.79;102659.81;2072591;28;47290;-62
2022/01/24 00:18:04;;;;;;;;;47.00;38.20;;;;;7.94;56.64;102658.88;2072281;28;47577;-62
2022/01/24 00:27:45;;;;;;;;;41.60;36.00;;;;;7.89;56.74;102652.63;2072295;28;48096;-61
2022/01/24 00:28:46;;;;;;;;;42.00;38.00;;;;;7.90;56.81;102657.03;2072370;28;47981;-62
2022/01/24 00:29:46;;;;;;;;;42.75;37.50;;;;;7.88;56.87;102650.84;2072116;28;47283;-61
2022/01/24 00:30:47;;;;;;;;;45.50;39.00;;;;;7.89;56.84;102649.97;2072452;28;48408;-61
2022/01/24 00:31:48;;;;;;;;;39.60;35.60;;;;;7.87;57.05;102649.91;2068113;28;47008;-61
2022/01/24 00:32:49;;;;;;;;;50.00;41.40;;;;;7.87;56.84;102652.56;2069524;28;48446;-61
2022/01/24 00:33:49;;;;;;;;;46.00;40.00;;;;;7.87;56.97;102654.31;2070919;28;47336;-61
2022/01/24 00:34:50;;;;;;;;;50.00;39.00;;;;;7.86;56.92;102647.25;2068097;28;48555;-62
2022/01/24 00:35:50;;;;;;;;;46.25;39.50;;;;;7.85;56.99;102648.13;2071435;28;47100;-62
2022/01/24 00:36:52;;;;;;;;;50.25;41.75;;;;;7.84;56.37;102643.69;2069363;28;48013;-61
2022/01/24 00:37:58;;;;;;;;;47.80;39.80;;;;;7.85;57.08;102643.72;2068201;28;47337;-61
2022/01/24 00:38:59;;;;;;;;;51.40;41.60;;;;;7.85;56.97;102645.47;2072270;28;47417;-61
2022/01/24 00:40:00;;;;;;;;;52.75;41.00;;;;;7.84;56.94;102638.41;2059774;28;47060;-62
2022/01/24 00:41:01;;;;;;;;;50.60;42.80;;;;;7.84;57.07;102641.94;2065927;28;48187;-62
2022/01/24 00:42:27;;;;;;;;;48.50;41.50;;;;;7.83;56.92;102637.50;2072379;28;47989;-61
2022/01/24 00:44:05;;;;;;;;;45.60;40.20;;;;;7.84;56.88;102638.41;2070591;28;47211;-61
2022/01/24 00:46:29;;;;;;;;;51.60;39.60;;;;;7.81;56.88;102631.31;2068914;28;48248;-61
2022/01/24 00:47:47;;;;;;;;;43.40;38.00;;;;;7.80;56.66;102634.81;2072562;28;47424;-62
2022/01/24 00:49:12;;;;;;;;;50.40;41.00;;;;;7.78;56.85;102639.19;2073299;28;48668;-60
2022/01/24 00:55:51;;;;;;;;;50.60;41.00;;;;;7.68;57.20;102632.81;2054335;28;47217;-61
2022/01/24 00:56:51;;;;;;;;;47.75;37.50;;;;;7.67;56.99;102630.13;2061396;28;48251;-62
2022/01/24 00:57:52;;;;;;;;;52.00;41.50;;;;;7.66;57.19;102634.53;2071943;28;48052;-62
2022/01/24 00:58:52;;;;;;;;;52.75;42.00;;;;;7.65;57.22;102634.50;2068335;28;48076;-61
2022/01/24 00:59:53;;;;;;;;;51.50;42.00;;;;;7.65;57.30;102635.41;2071927;28;48271;-62
2022/01/24 01:00:53;;;;;;;;;49.25;42.25;;;;;7.65;57.38;102635.41;2068430;28;48215;-61
2022/01/24 01:01:54;;;;;;;;;47.25;41.00;;;;;7.65;57.28;102637.16;2069862;28;47523;-61
2022/01/24 01:02:54;;;;;;;;;46.00;39.25;;;;;7.64;57.39;102625.69;2070314;28;48439;-61
2022/01/24 01:03:55;;;;;;;;;56.75;43.75;;;;;7.65;57.17;102627.47;2071969;28;46981;-61
2022/01/24 01:05:09;;;;;;;;;46.75;39.25;;;;;7.65;57.39;102627.47;2071606;28;47710;-61
2022/01/24 01:06:11;;;;;;;;;44.20;37.20;;;;;7.67;57.37;102624.84;2070532;28;47377;-61
2022/01/24 01:07:11;;;;;;;;;51.00;40.20;;;;;7.66;57.29;102625.72;2067920;28;48112;-62
2022/01/24 01:18:33;;;;;;;;;49.40;39.80;;;;;7.65;57.28;102626.59;2071677;28;47229;-61
2022/01/24 01:19:34;;;;;;;;;44.80;38.60;;;;;7.64;57.20;102630.97;2069397;28;48488;-61
2022/01/24 01:20:51;;;;;;;;;52.40;40.80;;;;;7.64;57.22;102627.44;2069166;28;47315;-62
2022/01/24 01:21:52;;;;;;;;;48.60;38.20;;;;;7.63;57.14;102631.84;2071372;28;48380;-61
2022/01/24 01:22:52;;;;;;;;;45.75;38.50;;;;;7.64;57.43;102635.38;2071258;28;48221;-61
2022/01/24 01:23:56;;;;;;;;;40.50;37.25;;;;;7.62;57.52;102623.84;2071425;28;48215;-61
2022/01/24 01:24:58;;;;;;;;;47.80;38.60;;;;;7.62;57.33;102634.41;2067842;28;47457;-61
2022/01/24 01:26:04;;;;;;;;;45.80;37.20;;;;;7.61;57.46;102628.25;2071088;28;48229;-60
2022/01/24 01:27:11;;;;;;;;;46.80;40.00;;;;;7.62;57.21;102630.06;2071656;28;48281;-61
2022/01/24 01:28:12;;;;;;;;;47.60;39.40;;;;;7.62;57.22;102630.06;2067866;28;47226;-61
2022/01/24 01:29:27;;;;;;;;;45.20;37.00;;;;;7.62;57.45;102623.84;2071616;28;47229;-61
2022/01/24 01:30:36;;;;;;;;;50.60;38.80;;;;;7.61;57.22;102624.72;2071035;28;48030;-62
2022/01/24 01:31:47;;;;;;;;;42.80;36.40;;;;;7.60;57.26;102623.81;2067946;28;47642;-62
2022/01/24 01:37:59;;;;;;;;;41.20;37.60;;;;;7.58;57.37;102622.91;2066948;28;47155;-62
2022/01/24 01:52:41;;;;;;;;;48.80;37.00;;;;;7.54;57.46;102615.78;2074754;28;47624;-61
2022/01/24 01:55:41;;;;;;;;;46.25;39.00;;;;;7.51;57.47;102613.09;2071834;28;48196;-61
2022/01/24 01:56:42;;;;;;;;;40.80;37.00;;;;;7.51;57.62;102614.84;2069596;28;47506;-61
2022/01/24 01:57:43;;;;;;;;;45.25;38.50;;;;;7.50;57.63;102615.69;2071630;28;47367;-61
2022/01/24 01:58:43;;;;;;;;;43.50;39.75;;;;;7.50;57.68;102610.41;2071584;28;48211;-61
2022/01/24 01:59:44;;;;;;;;;43.00;37.50;;;;;7.49;57.69;102614.78;2069190;28;47315;-62
2022/01/24 02:00:48;;;;;;;;;40.80;37.00;;;;;7.48;57.46;102615.63;2072019;28;47348;-61
2022/01/24 02:01:48;;;;;;;;;41.60;36.40;;;;;7.49;57.63;102619.16;2069342;28;46405;-61
2022/01/24 02:02:49;;;;;;;;;48.00;37.25;;;;;7.49;57.48;102620.06;2070093;28;47290;-63
2022/01/24 02:03:54;;;;;;;;;39.50;36.75;;;;;7.50;57.54;102621.88;2070869;28;47417;-62
2022/01/24 02:04:54;;;;;;;;;39.00;34.80;;;;;7.49;57.47;102614.78;2069205;28;47524;-61
2022/01/24 02:05:56;;;;;;;;;41.00;36.00;;;;;7.51;57.53;102617.47;2071297;28;47158;-62
2022/01/24 02:06:56;;;;;;;;;35.00;32.80;;;;;7.49;57.48;102622.69;2060801;28;48807;-61
2022/01/24 02:07:56;;;;;;;;;41.25;37.00;;;;;7.50;57.55;102619.22;2060286;28;47212;-62
2022/01/24 02:09:03;;;;;;;;;39.50;34.50;;;;;7.50;57.75;102618.34;2071547;28;46177;-61
2022/01/24 02:10:04;;;;;;;;;43.40;36.20;;;;;7.51;57.52;102618.38;2067878;28;47261;-61
2022/01/24 02:11:04;;;;;;;;;41.75;35.75;;;;;7.51;57.68;102620.13;2064447;28;48373;-61
2022/01/24 02:12:05;;;;;;;;;44.00;38.00;;;;;7.51;57.54;102614.84;2071581;28;48186;-61
2022/01/24 02:13:06;;;;;;;;;45.25;37.00;;;;;7.50;57.66;102613.94;2071629;28;48773;-63
2022/01/24 02:14:12;;;;;;;;;42.75;38.00;;;;;7.51;57.33;102625.41;2071903;28;48063;-60
2022/01/24 02:15:19;;;;;;;;;43.00;36.00;;;;;7.50;57.38;102620.97;2071543;28;48080;-61
2022/01/24 02:16:57;;;;;;;;;41.80;37.20;;;;;7.50;57.62;102621.88;2071823;28;47231;-60
2022/01/24 02:24:43;;;;;;;;;43.60;37.40;;;;;7.49;57.47;102616.53;2071759;28;47379;-61
2022/01/24 02:25:43;;;;;;;;;30.60;30.00;;;;;7.49;57.36;102613.88;2071673;28;48362;-62
2022/01/24 02:26:48;;;;;;;;;39.75;35.75;;;;;7.48;57.80;102606.81;2071632;28;48285;-61
2022/01/24 02:27:54;;;;;;;;;42.80;38.20;;;;;7.48;57.29;102604.19;2071648;28;48818;-61
2022/01/24 02:29:11;;;;;;;;;39.80;36.80;;;;;7.47;57.61;102610.31;2071619;28;46445;-62
2022/01/24 02:32:42;;;;;;;;;37.20;35.80;;;;;7.47;57.61;102605.03;2071766;28;48249;-61
2022/01/24 02:33:46;;;;;;;;;34.00;32.25;;;;;7.47;57.57;102608.56;2071713;28;46017;-61
2022/01/24 02:34:49;;;;;;;;;43.00;37.00;;;;;7.47;57.59;102597.13;2071592;28;48460;-60
2022/01/24 02:35:50;;;;;;;;;38.80;34.00;;;;;7.47;57.52;102605.03;2071520;28;46157;-61
2022/01/24 02:36:52;;;;;;;;;40.50;35.25;;;;;7.47;57.04;102599.75;2071601;28;47140;-60
2022/01/24 02:37:53;;;;;;;;;45.40;37.80;;;;;7.46;57.47;102598.88;2071448;28;45305;-61
2022/01/24 02:40:02;;;;;;;;;42.80;38.00;;;;;7.45;57.44;102601.47;2071446;28;47329;-61
2022/01/24 02:49:12;;;;;;;;;33.80;29.40;;;;;7.42;57.40;102589.09;2071639;28;47548;-60
2022/01/24 02:50:24;;;;;;;;;35.40;34.40;;;;;7.42;57.74;102593.50;2071642;28;46654;-61
2022/01/24 02:51:45;;;;;;;;;38.60;35.60;;;;;7.41;57.37;102591.72;2071724;28;47871;-61
2022/01/24 02:52:46;;;;;;;;;39.20;34.20;;;;;7.41;57.48;102594.34;2071395;28;47811;-61
2022/01/24 02:53:47;;;;;;;;;39.00;36.25;;;;;7.39;57.65;102589.03;2069059;28;47983;-61
2022/01/24 02:54:49;;;;;;;;;46.60;38.20;;;;;7.39;57.65;102583.75;2063495;28;47283;-61
2022/01/24 02:55:49;;;;;;;;;36.00;33.20;;;;;7.38;57.49;102585.50;2064960;28;47548;-61
2022/01/24 02:56:50;;;;;;;;;37.25;34.75;;;;;7.38;57.59;102587.25;2063874;28;46276;-60
2022/01/24 02:57:51;;;;;;;;;39.00;36.00;;;;;7.38;57.75;102581.97;2067166;28;47319;-60
2022/01/24 02:58:51;;;;;;;;;44.25;37.25;;;;;7.37;57.55;102589.00;2070400;28;47988;-61
2022/01/24 02:59:51;;;;;;;;;35.25;30.50;;;;;7.37;57.54;102583.72;2071238;28;47238;-61
2022/01/24 03:00:53;;;;;;;;;34.25;34.00;;;;;7.37;57.63;102581.09;2067219;28;48040;-62
2022/01/24 03:01:54;;;;;;;;;40.60;34.80;;;;;7.36;57.77;102581.91;2070798;28;47202;-62
2022/01/24 03:02:55;;;;;;;;;37.20;34.60;;;;;7.37;57.64;102580.19;2070843;28;48113;-61
2022/01/24 03:03:55;;;;;;;;;50.00;37.00;;;;;7.36;57.35;102584.56;2067443;28;47366;-61
2022/01/24 03:04:57;;;;;;;;;41.25;35.25;;;;;7.36;57.50;102584.56;2071318;28;48113;-62
2022/01/24 03:05:57;;;;;;;;;42.00;37.40;;;;;7.36;57.63;102581.03;2066716;28;47734;-61
2022/01/24 03:06:58;;;;;;;;;35.50;32.50;;;;;7.36;57.44;102575.75;2068597;28;47461;-61
2022/01/24 03:07:59;;;;;;;;;37.00;35.00;;;;;7.37;57.81;102585.50;2069893;28;48422;-60
2022/01/24 03:08:59;;;;;;;;;43.00;35.25;;;;;7.37;57.69;102572.28;2066281;28;47299;-60
2022/01/24 03:10:08;;;;;;;;;43.25;37.50;;;;;7.37;57.73;102580.19;2069995;28;48290;-61
2022/01/24 03:11:08;;;;;;;;;40.60;35.40;;;;;7.37;57.69;102582.84;2071277;28;48438;-61
2022/01/24 03:12:13;;;;;;;;;43.25;37.25;;;;;7.38;57.48;102581.97;2066776;28;47324;-60
2022/01/24 03:14:29;;;;;;;;;38.60;33.60;;;;;7.35;57.59;102580.16;2069393;28;47488;-61
2022/01/24 03:15:29;;;;;;;;;38.80;35.00;;;;;7.35;57.63;102580.16;2066311;28;48256;-60
2022/01/24 03:16:30;;;;;;;;;46.50;38.00;;;;;7.35;57.53;102580.16;2070152;28;47902;-60
2022/01/24 03:17:30;;;;;;;;;43.00;36.00;;;;;7.35;57.74;102571.31;2068256;28;47385;-61
2022/01/24 03:18:32;;;;;;;;;36.00;35.00;;;;;7.34;57.48;102575.72;2071341;28;47152;-62
2022/01/24 03:19:33;;;;;;;;;44.60;36.40;;;;;7.34;57.28;102569.53;2071081;28;48159;-62
2022/01/24 03:20:34;;;;;;;;;42.00;36.80;;;;;7.33;57.50;102573.94;2071301;28;47479;-62
2022/01/24 03:21:34;;;;;;;;;41.20;36.40;;;;;7.33;57.56;102568.66;2071037;28;47329;-61
2022/01/24 03:22:35;;;;;;;;;41.25;35.75;;;;;7.33;57.49;102573.06;2071440;28;47362;-61
2022/01/24 03:23:35;;;;;;;;;31.50;30.25;;;;;7.32;57.54;102566.88;2071249;28;47932;-61
2022/01/24 03:24:35;;;;;;;;;41.75;37.25;;;;;7.32;57.65;102572.16;2069307;28;47221;-62
2022/01/24 03:25:36;;;;;;;;;36.75;35.00;;;;;7.32;57.58;102566.88;2068638;28;46897;-62
2022/01/24 03:26:37;;;;;;;;;41.25;35.25;;;;;7.30;57.50;102573.88;2071131;28;47848;-61
2022/01/24 03:27:37;;;;;;;;;44.50;35.50;;;;;7.30;57.49;102565.97;2070988;28;47463;-61
2022/01/24 03:28:38;;;;;;;;;46.00;37.50;;;;;7.31;57.30;102573.03;2067219;28;48375;-61
2022/01/24 03:29:38;;;;;;;;;38.25;35.00;;;;;7.30;57.47;102568.59;2058712;28;47715;-61
2022/01/24 03:30:40;;;;;;;;;38.25;33.25;;;;;7.30;57.53;102571.25;2061379;28;47105;-62
2022/01/24 03:31:42;;;;;;;;;36.40;32.80;;;;;7.29;57.16;102572.09;2066288;28;48254;-62
2022/01/24 03:32:43;;;;;;;;;41.00;37.60;;;;;7.28;57.19;102570.31;2069076;28;47371;-62
2022/01/24 03:33:43;;;;;;;;;41.25;35.75;;;;;7.28;57.42;102575.59;2069163;28;47872;-62
2022/01/24 03:34:44;;;;;;;;;36.50;32.25;;;;;7.27;57.19;102570.28;2066900;28;47274;-61
2022/01/24 03:35:45;;;;;;;;;38.50;33.25;;;;;7.27;57.41;102570.28;2071083;28;46814;-61
2022/01/24 03:36:45;;;;;;;;;41.25;37.00;;;;;7.26;57.32;102569.41;2071271;28;47217;-61
2022/01/24 03:37:45;;;;;;;;;32.50;32.00;;;;;7.25;57.38;102566.75;2067486;28;47076;-61
2022/01/24 03:38:46;;;;;;;;;43.75;37.00;;;;;7.25;57.33;102567.63;2070777;28;47890;-61
2022/01/24 03:39:46;;;;;;;;;37.75;33.00;;;;;7.24;57.44;102570.22;2066817;28;47208;-60
2022/01/24 03:40:47;;;;;;;;;44.50;36.00;;;;;7.24;57.39;102567.56;2071167;28;48092;-62
2022/01/24 03:41:47;;;;;;;;;45.50;34.25;;;;;7.23;57.38;102565.78;2069579;28;47037;-62
2022/01/24 03:42:48;;;;;;;;;36.25;34.00;;;;;7.23;57.36;102560.50;2065519;28;46968;-61
2022/01/24 03:43:49;;;;;;;;;41.00;36.20;;;;;7.23;57.33;102566.66;2067367;28;48353;-61
2022/01/24 03:44:55;;;;;;;;;41.75;36.00;;;;;7.22;57.41;102564.91;2068415;28;48313;-62
2022/01/24 03:48:44;;;;;;;;;36.00;32.80;;;;;7.20;57.20;102563.09;2038946;28;47546;-62
2022/01/24 03:49:52;;;;;;;;;33.20;32.00;;;;;7.20;57.55;102565.72;2041727;28;48446;-61
2022/01/24 03:50:53;;;;;;;;;44.40;36.20;;;;;7.19;57.53;102566.59;2038690;28;47197;-61
2022/01/24 03:51:54;;;;;;;;;37.40;34.20;;;;;7.19;57.63;102563.94;2036520;28;48382;-61
2022/01/24 03:52:54;;;;;;;;;34.75;32.25;;;;;7.18;57.42;102563.06;2044285;28;47473;-61
2022/01/24 03:53:55;;;;;;;;;42.25;35.25;;;;;7.18;57.59;102568.34;2066996;28;47397;-61
2022/01/24 03:54:56;;;;;;;;;39.75;36.75;;;;;7.18;57.63;102570.09;2067619;28;47876;-61
2022/01/24 03:55:57;;;;;;;;;41.40;37.40;;;;;7.17;57.55;102566.56;2066425;28;48306;-62
2022/01/24 03:56:57;;;;;;;;;41.50;37.50;;;;;7.16;57.38;102567.41;2065348;28;46239;-62
2022/01/24 03:57:58;;;;;;;;;37.50;34.00;;;;;7.16;57.64;102567.41;2069502;28;48420;-61
2022/01/24 03:58:58;;;;;;;;;36.50;33.00;;;;;7.15;57.33;102556.81;2072435;28;47176;-62
2022/01/24 03:59:59;;;;;;;;;38.75;34.75;;;;;7.15;57.59;102563.00;2066510;28;47426;-60
2022/01/24 04:01:00;;;;;;;;;45.00;35.50;;;;;7.14;57.27;102558.56;2067091;28;45441;-61
2022/01/24 04:02:01;;;;;;;;;35.60;34.20;;;;;7.15;57.59;102552.44;2064530;28;47266;-61
2022/01/24 04:03:02;;;;;;;;;40.60;35.40;;;;;7.15;57.48;102554.19;2066777;28;46381;-62
2022/01/24 04:04:02;;;;;;;;;28.75;24.75;;;;;7.13;57.60;102554.16;2066212;28;47279;-61
2022/01/24 04:05:03;;;;;;;;;35.50;27.25;;;;;7.12;57.70;102555.03;2072216;28;47068;-61
2022/01/24 04:06:04;;;;;;;;;36.00;32.75;;;;;7.13;57.71;102556.78;2070767;28;47997;-62
2022/01/24 04:07:05;;;;;;;;;45.40;36.00;;;;;7.13;57.80;102548.00;2065505;28;47601;-61
2022/01/24 04:08:06;;;;;;;;;39.00;36.60;;;;;7.13;57.75;102553.28;2066644;28;48290;-60
2022/01/24 04:09:06;;;;;;;;;43.00;36.25;;;;;7.12;57.58;102549.75;2066870;28;46823;-60
2022/01/24 04:10:08;;;;;;;;;48.00;37.75;;;;;7.11;57.80;102550.56;2065455;28;47898;-60
2022/01/24 04:11:11;;;;;;;;;38.00;33.60;;;;;7.11;57.63;102547.91;2063525;28;48080;-61
2022/01/24 04:12:14;;;;;;;;;40.20;37.60;;;;;7.11;57.71;102549.66;2061760;28;47475;-61
2022/01/24 04:13:36;;;;;;;;;36.00;33.40;;;;;7.09;57.69;102547.91;2072220;28;47484;-61
2022/01/24 04:14:55;;;;;;;;;33.00;32.20;;;;;7.10;57.52;102551.41;2072713;28;48047;-61
2022/01/24 04:16:52;;;;;;;;;36.20;32.40;;;;;7.10;57.58;102546.16;2070966;28;47413;-61
2022/01/24 04:18:33;;;;;;;;;37.25;33.50;;;;;7.08;57.40;102540.84;2066245;28;47447;-60
2022/01/24 04:22:01;;;;;;;;;42.40;38.20;;;;;7.06;57.59;102547.84;2070597;28;48393;-61
2022/01/24 04:23:01;;;;;;;;;44.75;39.25;;;;;7.07;57.78;102546.97;2072263;28;47092;-60
2022/01/24 04:24:10;;;;;;;;;44.50;39.00;;;;;7.07;57.71;102548.72;2072224;28;48301;-61
2022/01/24 04:25:14;;;;;;;;;47.20;38.00;;;;;7.06;57.71;102549.59;2072221;28;47456;-60
2022/01/24 04:26:15;;;;;;;;;43.80;37.60;;;;;7.06;57.70;102541.66;2071508;28;48586;-60
2022/01/24 04:27:15;;;;;;;;;45.25;37.50;;;;;7.05;57.85;102551.34;2070987;28;46348;-60
2022/01/24 04:28:16;;;;;;;;;38.25;35.50;;;;;7.04;57.87;102540.75;2072403;28;47192;-62
2022/01/24 04:29:17;;;;;;;;;38.00;35.25;;;;;7.04;57.66;102544.28;2072498;28;46978;-61
2022/01/24 04:30:17;;;;;;;;;38.00;35.75;;;;;7.02;57.76;102538.06;2070199;28;48305;-61
2022/01/24 04:31:18;;;;;;;;;40.25;35.00;;;;;7.01;57.67;102544.22;2070651;28;46874;-61
2022/01/24 04:32:20;;;;;;;;;37.20;34.20;;;;;7.01;57.63;102543.31;2072502;28;47032;-61
2022/01/24 04:33:20;;;;;;;;;41.20;35.80;;;;;7.00;57.91;102545.06;2063572;28;47119;-61
2022/01/24 04:34:21;;;;;;;;;40.75;37.00;;;;;7.00;57.67;102542.44;2062456;28;48093;-61
2022/01/24 04:35:21;;;;;;;;;35.75;31.50;;;;;7.00;57.73;102546.81;2071631;28;47538;-61
2022/01/24 04:36:23;;;;;;;;;45.75;38.75;;;;;7.01;57.90;102548.59;2070553;28;47200;-62
2022/01/24 04:37:23;;;;;;;;;44.60;36.00;;;;;6.98;57.83;102544.13;2072179;28;48048;-61
2022/01/24 04:38:24;;;;;;;;;42.25;35.00;;;;;6.99;57.59;102545.06;2072241;28;47024;-61
2022/01/24 04:39:25;;;;;;;;;44.50;37.75;;;;;6.98;57.75;102546.75;2069559;28;47070;-61
2022/01/24 04:40:26;;;;;;;;;37.50;35.50;;;;;7.00;57.88;102546.81;2067027;28;48052;-61
2022/01/24 04:41:34;;;;;;;;;48.25;40.50;;;;;6.98;57.67;102549.41;2066446;28;48586;-62
2022/01/24 04:42:43;;;;;;;;;38.00;34.20;;;;;6.99;57.63;102547.69;2069329;28;47605;-61
2022/01/24 04:45:22;;;;;;;;;40.80;36.80;;;;;6.97;57.56;102547.63;2071905;28;47279;-61
2022/01/24 04:46:41;;;;;;;;;41.40;36.20;;;;;6.96;57.90;102544.94;2066056;28;47873;-61
2022/01/24 04:50:22;;;;;;;;;46.40;38.20;;;;;6.95;57.81;102549.34;2067764;28;47430;-60
2022/01/24 04:52:12;;;;;;;;;38.80;35.60;;;;;6.91;57.71;102544.88;2066276;28;48513;-61
2022/01/24 04:53:07;;;;;;;;;38.00;35.60;;;;;6.89;57.96;102543.94;2070883;28;46997;-60
2022/01/24 04:55:08;;;;;;;;;35.25;31.25;;;;;6.88;58.09;102546.56;2071966;28;47355;-61
2022/01/24 04:56:09;;;;;;;;;36.40;33.60;;;;;6.88;57.82;102549.19;2065497;28;45304;-61
2022/01/24 04:57:16;;;;;;;;;40.25;35.75;;;;;6.87;58.02;102544.78;2070745;28;46100;-60
2022/01/24 04:58:16;;;;;;;;;43.40;37.60;;;;;6.87;58.06;102545.66;2070254;28;47136;-61
2022/01/24 04:59:16;;;;;;;;;39.75;35.75;;;;;6.87;57.84;102548.28;2066637;28;48288;-60
2022/01/24 05:00:17;;;;;;;;;37.00;34.50;;;;;6.87;57.72;102548.28;2070989;28;47879;-62
2022/01/24 05:01:17;;;;;;;;;40.75;36.50;;;;;6.86;58.02;102546.53;2071919;28;48040;-61
2022/01/24 05:02:20;;;;;;;;;41.50;36.50;;;;;6.87;57.65;102544.78;2072077;28;46955;-60
2022/01/24 05:03:21;;;;;;;;;35.00;30.00;;;;;6.85;57.73;102544.72;2072409;28;47438;-61
2022/01/24 05:04:21;;;;;;;;;48.00;37.75;;;;;6.86;57.87;102545.59;2065505;28;48124;-61
2022/01/24 05:05:24;;;;;;;;;44.25;37.25;;;;;6.86;58.03;102548.22;2069179;28;47515;-61
2022/01/24 05:06:25;;;;;;;;;45.00;39.00;;;;;6.85;57.95;102544.72;2068895;28;47392;-61
2022/01/24 05:07:26;;;;;;;;;43.75;37.25;;;;;6.85;57.92;102549.09;2065894;28;47923;-60
2022/01/24 05:08:26;;;;;;;;;39.40;36.60;;;;;6.84;58.03;102544.69;2070838;28;47941;-61
2022/01/24 05:09:31;;;;;;;;;42.75;35.50;;;;;6.83;58.03;102545.53;2058545;28;45493;-61
2022/01/24 05:10:39;;;;;;;;;45.20;37.80;;;;;6.83;58.06;102549.06;2067295;28;47464;-61
2022/01/24 05:11:54;;;;;;;;;50.00;36.60;;;;;6.83;58.03;102545.53;2079232;28;47330;-62
2022/01/24 05:23:48;;;;;;;;;41.00;36.00;;;;;6.81;58.10;102553.41;2046662;28;47505;-62
2022/01/24 05:24:48;;;;;;;;;45.00;37.75;;;;;6.79;57.90;102553.38;2046534;28;47413;-61
2022/01/24 05:25:49;;;;;;;;;41.75;38.00;;;;;6.79;57.85;102557.78;2038787;28;48436;-62
2022/01/24 05:26:49;;;;;;;;;38.75;35.75;;;;;6.79;58.06;102557.78;2037720;28;48236;-61
2022/01/24 05:27:50;;;;;;;;;40.00;37.25;;;;;6.80;57.95;102556.91;2050592;28;47231;-61
2022/01/24 05:28:50;;;;;;;;;44.50;38.75;;;;;6.79;57.98;102556.03;2072103;28;48048;-62
2022/01/24 05:29:51;;;;;;;;;39.50;34.00;;;;;6.79;58.18;102545.47;2071150;28;46984;-61
2022/01/24 05:30:52;;;;;;;;;35.25;32.50;;;;;6.81;57.92;102549.88;2071680;28;48357;-62
2022/01/24 05:31:53;;;;;;;;;43.40;35.20;;;;;6.81;58.39;102549.88;2071604;28;47191;-61
2022/01/24 05:32:54;;;;;;;;;45.20;39.00;;;;;6.81;58.10;102548.13;2071127;28;45395;-60
2022/01/24 05:33:54;;;;;;;;;42.50;37.00;;;;;6.82;58.05;102549.03;2072033;28;48325;-61
2022/01/24 05:34:55;;;;;;;;;44.00;37.75;;;;;6.83;58.08;102549.06;2070792;28;47191;-62
2022/01/24 05:35:55;;;;;;;;;36.25;34.75;;;;;6.81;57.80;102545.50;2071849;28;46324;-64
2022/01/24 05:36:56;;;;;;;;;48.00;40.00;;;;;6.79;58.03;102542.84;2063231;28;48374;-61
2022/01/24 05:37:57;;;;;;;;;41.25;35.75;;;;;6.79;57.88;102540.19;2054886;28;46352;-61
2022/01/24 05:39:00;;;;;;;;;44.50;37.75;;;;;6.79;57.90;102540.19;2062186;28;47656;-61
2022/01/24 05:40:01;;;;;;;;;40.40;35.80;;;;;6.79;57.59;102540.19;2072039;28;48060;-62
2022/01/24 05:41:02;;;;;;;;;42.25;37.00;;;;;6.79;57.70;102534.91;2071020;28;47224;-63
2022/01/24 05:42:03;;;;;;;;;37.50;35.00;;;;;6.80;57.89;102541.09;2071909;28;47449;-61
2022/01/24 05:43:04;;;;;;;;;39.50;35.75;;;;;6.80;57.78;102543.72;2071592;28;48323;-61
2022/01/24 05:44:08;;;;;;;;;37.25;34.75;;;;;6.81;57.83;102534.06;2069618;28;48592;-62
2022/01/24 05:45:08;;;;;;;;;40.20;34.60;;;;;6.79;58.11;102541.94;2071368;28;48069;-62
2022/01/24 05:46:09;;;;;;;;;40.25;36.00;;;;;6.79;58.01;102537.56;2069772;28;47517;-61
2022/01/24 05:47:09;;;;;;;;;39.50;36.75;;;;;6.79;57.86;102542.84;2071477;28;47789;-62
2022/01/24 05:48:10;;;;;;;;;40.75;36.00;;;;;6.79;58.07;102540.19;2071899;28;47348;-61
2022/01/24 05:49:10;;;;;;;;;40.25;35.50;;;;;6.79;58.07;102542.84;2075274;28;48234;-61
2022/01/24 05:50:11;;;;;;;;;34.50;33.50;;;;;6.77;57.87;102538.38;2076020;28;48032;-60
2022/01/24 05:51:11;;;;;;;;;42.75;38.25;;;;;6.77;58.08;102541.03;2078285;28;47543;-61
2022/01/24 05:52:12;;;;;;;;;42.75;37.50;;;;;6.76;57.89;102540.13;2074519;28;46269;-61
2022/01/24 05:53:12;;;;;;;;;36.25;33.50;;;;;6.76;57.79;102541.88;2065301;28;48529;-61
2022/01/24 05:54:13;;;;;;;;;47.50;37.50;;;;;6.76;57.89;102540.13;2071627;28;47800;-61
2022/01/24 05:55:13;;;;;;;;;40.50;37.00;;;;;6.75;57.92;102543.63;2068019;28;48044;-62
2022/01/24 05:56:15;;;;;;;;;41.25;37.50;;;;;6.75;57.92;102543.63;2063812;28;47385;-60
2022/01/24 05:57:16;;;;;;;;;44.40;38.40;;;;;6.76;58.02;102533.97;2063817;28;47403;-61
2022/01/24 05:58:16;;;;;;;;;39.50;36.50;;;;;6.76;58.02;102542.78;2067546;28;47153;-61
2022/01/24 05:59:17;;;;;;;;;37.50;36.25;;;;;6.76;57.72;102547.16;2063789;28;48230;-61
2022/01/24 06:00:17;;;;;;;;;45.00;38.50;;;;;6.75;57.73;102541.00;2066322;28;47828;-61
2022/01/24 06:01:18;;;;;;;;;37.25;34.50;;;;;6.74;58.08;102539.22;2068339;28;47116;-60
2022/01/24 06:02:18;;;;;;;;;50.75;40.00;;;;;6.74;58.13;102541.84;2071332;28;47549;-62
2022/01/24 06:03:20;;;;;;;;;50.75;39.00;;;;;6.74;57.89;102539.22;2071220;28;47400;-61
2022/01/24 06:04:21;;;;;;;;;39.60;36.80;;;;;6.73;57.75;102532.16;2071086;28;48460;-61
2022/01/24 06:05:21;;;;;;;;;45.75;40.25;;;;;6.72;57.90;102530.34;2071436;28;47968;-60
2022/01/24 06:06:21;;;;;;;;;41.00;36.25;;;;;6.73;58.09;102528.59;2070998;28;48006;-60
2022/01/24 06:07:22;;;;;;;;;41.25;37.75;;;;;6.72;57.89;102540.88;2071552;28;47293;-61
2022/01/24 06:08:23;;;;;;;;;45.50;40.50;;;;;6.72;58.13;102534.72;2072044;28;48110;-61
2022/01/24 06:09:23;;;;;;;;;46.25;38.50;;;;;6.71;58.04;102533.84;2072712;28;48098;-61
2022/01/24 06:10:23;;;;;;;;;52.00;41.75;;;;;6.71;58.16;102541.75;2072360;28;47820;-61
2022/01/24 06:11:24;;;;;;;;;44.50;38.50;;;;;6.71;58.21;102538.22;2062905;28;47266;-61
2022/01/24 06:12:25;;;;;;;;;41.75;36.50;;;;;6.71;57.86;102539.13;2062992;28;48229;-62
2022/01/24 06:13:26;;;;;;;;;51.60;38.40;;;;;6.71;58.17;102538.22;2069651;28;46363;-61
2022/01/24 06:14:27;;;;;;;;;48.75;40.25;;;;;6.70;58.21;102542.59;2071327;28;47164;-61
2022/01/24 06:15:27;;;;;;;;;49.00;39.00;;;;;6.69;57.70;102546.09;2070777;28;47142;-61
2022/01/24 06:16:28;;;;;;;;;52.00;41.75;;;;;6.69;57.96;102548.75;2071294;28;48060;-61
2022/01/24 06:17:28;;;;;;;;;45.25;39.75;;;;;6.68;57.64;102546.06;2071840;28;48184;-61
2022/01/24 06:18:29;;;;;;;;;48.00;37.25;;;;;6.67;58.12;102542.53;2071405;28;47433;-61
2022/01/24 06:19:29;;;;;;;;;49.00;40.00;;;;;6.67;58.14;102547.81;2070965;28;47228;-61